createdAt,value
2023-01-07T00:01:40.403Z,13.65
2023-01-07T00:04:11.235Z,13.88
2023-01-07T00:06:40.747Z,13.65
2023-01-07T00:09:11.686Z,13.37
2023-01-07T00:11:40.840Z,13.25
2023-01-07T00:14:10.228Z,14.00
2023-01-07T00:16:38.702Z,13.93
2023-01-07T00:19:08.591Z,12.75
2023-01-07T00:21:35.943Z,12.88
2023-01-07T00:24:05.659Z,12.50
2023-01-07T00:26:36.436Z,13.30
2023-01-07T00:29:05.803Z,13.40
2023-01-07T00:31:35.623Z,12.82
2023-01-07T00:34:03.041Z,13.50
2023-01-07T00:36:32.524Z,12.88
2023-01-07T00:39:02.945Z,13.52
2023-01-07T00:41:30.636Z,13.15
2023-01-07T00:43:58.015Z,13.38
2023-01-07T00:46:26.021Z,13.67
2023-01-07T00:48:53.523Z,14.10
2023-01-07T00:51:21.192Z,13.40
2023-01-07T00:53:48.686Z,13.45
2023-01-07T00:56:19.109Z,13.20
2023-01-07T00:58:47.079Z,13.63
2023-01-07T01:01:15.829Z,13.73
2023-01-07T01:03:43.271Z,13.35
2023-01-07T01:06:14.433Z,13.73
2023-01-07T01:08:46.440Z,13.50
2023-01-07T01:11:16.112Z,13.60
2023-01-07T01:13:44.885Z,14.13
2023-01-07T01:16:17.888Z,13.38
2023-01-07T01:18:45.940Z,13.13
2023-01-07T01:21:15.352Z,13.27
2023-01-07T01:23:43.728Z,13.07
2023-01-07T01:26:16.918Z,13.53
2023-01-07T01:28:45.343Z,13.45
2023-01-07T01:31:15.749Z,13.80
2023-01-07T01:33:48.996Z,13.00
2023-01-07T01:36:17.640Z,13.32
2023-01-07T01:38:45.021Z,13.60
2023-01-07T01:41:16.335Z,13.23
2023-01-07T01:43:45.780Z,13.57
2023-01-07T01:46:43.369Z,12.90
2023-01-07T01:49:27.934Z,12.95
2023-01-07T01:52:04.808Z,13.60
2023-01-07T01:54:33.640Z,13.00
2023-01-07T01:57:04.180Z,12.50
2023-01-07T01:59:36.723Z,13.70
2023-01-07T02:02:07.992Z,13.48
2023-01-07T02:04:36.722Z,13.38
2023-01-07T02:07:06.709Z,12.55
2023-01-07T02:09:36.118Z,13.23
2023-01-07T02:12:36.346Z,12.98
2023-01-07T02:15:13.528Z,13.00
2023-01-07T02:17:50.705Z,12.55
2023-01-07T02:20:28.192Z,13.13
2023-01-07T02:23:27.930Z,13.00
2023-01-07T02:26:32.503Z,12.98
2023-01-07T02:29:18.000Z,13.07
2023-01-07T02:32:06.351Z,13.23
2023-01-07T02:34:50.214Z,13.00
2023-01-07T02:37:42.811Z,13.35
2023-01-07T02:40:12.947Z,12.93
2023-01-07T02:43:21.507Z,12.77
2023-01-07T02:45:53.058Z,13.65
2023-01-07T02:48:22.713Z,13.40
2023-01-07T02:50:50.042Z,13.05
2023-01-07T02:53:20.819Z,12.95
2023-01-07T02:56:09.823Z,13.10
2023-01-07T02:58:55.135Z,12.70
2023-01-07T03:01:38.144Z,12.95
2023-01-07T03:04:25.415Z,13.05
2023-01-07T03:07:01.614Z,13.40
2023-01-07T03:09:44.013Z,13.05
2023-01-07T03:12:43.839Z,13.25
2023-01-07T03:15:24.968Z,12.63
2023-01-07T03:18:17.225Z,13.32
2023-01-07T03:20:47.980Z,13.07
2023-01-07T03:23:20.124Z,12.77
2023-01-07T03:25:50.401Z,13.23
2023-01-07T03:28:24.696Z,13.00
2023-01-07T03:30:54.668Z,12.85
2023-01-07T03:33:50.390Z,13.10
2023-01-07T03:36:22.975Z,12.77
2023-01-07T03:38:55.572Z,12.73
2023-01-07T03:41:42.724Z,12.95
2023-01-07T03:44:10.463Z,12.97
2023-01-07T03:46:38.648Z,13.00
2023-01-07T03:49:07.419Z,12.53
2023-01-07T03:51:36.507Z,13.05
2023-01-07T03:54:05.023Z,13.23
2023-01-07T03:56:32.693Z,12.98
2023-01-07T03:59:00.042Z,13.25
2023-01-07T04:01:27.640Z,12.95
2023-01-07T04:03:55.196Z,12.82
2023-01-07T04:06:23.000Z,13.30
2023-01-07T04:08:50.527Z,13.60
2023-01-07T04:11:18.352Z,13.18
2023-01-07T04:13:45.769Z,12.85
2023-01-07T04:16:13.276Z,13.05
2023-01-07T04:18:41.716Z,13.43
2023-01-07T04:21:09.312Z,13.60
2023-01-07T04:23:36.629Z,13.20
2023-01-07T04:26:04.031Z,14.70
2023-01-07T04:28:32.195Z,13.70
2023-01-07T04:31:00.289Z,12.95
2023-01-07T04:33:28.217Z,12.88
2023-01-07T04:35:57.803Z,14.20
2023-01-07T04:38:25.979Z,13.60
2023-01-07T04:40:55.173Z,13.07
2023-01-07T04:43:22.535Z,13.97
2023-01-07T04:45:50.053Z,13.70
2023-01-07T04:48:19.272Z,13.63
2023-01-07T04:50:49.147Z,13.97
2023-01-07T04:53:17.124Z,14.05
2023-01-07T04:55:46.436Z,14.25
2023-01-07T04:58:14.488Z,14.75
2023-01-07T05:00:42.208Z,13.90
2023-01-07T05:03:09.569Z,13.93
2023-01-07T05:05:37.852Z,14.55
2023-01-07T05:08:05.655Z,14.30
2023-01-07T05:10:33.728Z,14.82
2023-01-07T05:13:06.873Z,13.93
2023-01-07T05:15:35.035Z,14.20
2023-01-07T05:18:02.401Z,13.40
2023-01-07T05:20:29.805Z,14.38
2023-01-07T05:22:57.080Z,14.00
2023-01-07T05:25:24.511Z,14.80
2023-01-07T05:27:52.007Z,14.40
2023-01-07T05:30:19.698Z,15.32
2023-01-07T05:32:47.073Z,14.40
2023-01-07T05:35:14.487Z,13.68
2023-01-07T05:37:42.051Z,14.07
2023-01-07T05:40:11.050Z,14.15
2023-01-07T05:42:38.961Z,14.90
2023-01-07T05:45:07.176Z,15.30
2023-01-07T05:47:34.620Z,14.75
2023-01-07T05:50:01.966Z,14.55
2023-01-07T05:52:29.411Z,14.70
2023-01-07T05:54:56.732Z,15.82
2023-01-07T05:57:24.006Z,14.98
2023-01-07T05:59:51.268Z,14.60
2023-01-07T06:02:18.667Z,14.70
2023-01-07T06:04:46.116Z,14.52
2023-01-07T06:07:13.454Z,14.60
2023-01-07T06:09:40.836Z,14.90
2023-01-07T06:12:08.200Z,15.35
2023-01-07T06:14:35.520Z,15.40
2023-01-07T06:17:02.890Z,15.07
2023-01-07T06:19:30.302Z,14.40
2023-01-07T06:21:57.659Z,15.00
2023-01-07T06:24:24.971Z,14.55
2023-01-07T06:26:52.337Z,14.63
2023-01-07T06:29:19.698Z,15.73
2023-01-07T06:31:46.971Z,15.00
2023-01-07T06:34:14.214Z,15.57
2023-01-07T06:36:41.586Z,14.68
2023-01-07T06:39:08.955Z,15.38
2023-01-07T06:41:36.310Z,15.10
2023-01-07T06:44:03.808Z,15.43
2023-01-07T06:46:31.407Z,15.07
2023-01-07T06:48:58.905Z,15.57
2023-01-07T06:51:26.291Z,15.25
2023-01-07T06:53:53.702Z,16.05
2023-01-07T06:56:21.158Z,16.42
2023-01-07T06:58:48.622Z,15.40
2023-01-07T07:01:16.145Z,15.90
2023-01-07T07:03:43.544Z,15.38
2023-01-07T07:06:11.241Z,16.08
2023-01-07T07:08:38.615Z,16.40
2023-01-07T07:11:06.022Z,15.00
2023-01-07T07:13:33.387Z,15.70
2023-01-07T07:16:00.875Z,15.60
2023-01-07T07:18:28.247Z,15.93
2023-01-07T07:20:55.632Z,17.20
2023-01-07T07:23:23.041Z,15.45
2023-01-07T07:25:50.350Z,16.88
2023-01-07T07:28:17.710Z,17.52
2023-01-07T07:30:47.433Z,18.95
2023-01-07T07:33:19.089Z,17.08
2023-01-07T07:35:47.734Z,18.07
2023-01-07T07:38:17.667Z,16.85
2023-01-07T07:40:45.869Z,17.60
2023-01-07T07:43:13.898Z,18.85
2023-01-07T07:45:41.730Z,18.25
2023-01-07T07:48:10.053Z,17.95
2023-01-07T07:50:37.504Z,18.20
2023-01-07T07:53:05.268Z,17.95
2023-01-07T07:55:32.580Z,18.27
2023-01-07T07:58:00.035Z,17.80
2023-01-07T08:00:27.423Z,18.17
2023-01-07T08:02:58.756Z,19.85
2023-01-07T08:05:27.529Z,18.98
2023-01-07T08:07:54.887Z,19.70
2023-01-07T08:10:22.319Z,17.67
2023-01-07T08:12:50.711Z,17.75
2023-01-07T08:15:18.455Z,17.23
2023-01-07T08:17:45.822Z,16.92
2023-01-07T08:20:13.212Z,17.02
2023-01-07T08:22:40.670Z,16.35
2023-01-07T08:25:08.431Z,16.05
2023-01-07T08:27:35.794Z,16.00
2023-01-07T08:30:03.563Z,17.17
2023-01-07T08:32:30.973Z,16.75
2023-01-07T08:34:58.295Z,17.45
2023-01-07T08:37:25.683Z,16.38
2023-01-07T08:39:53.046Z,15.52
2023-01-07T08:42:20.457Z,17.33
2023-01-07T08:44:48.370Z,18.57
2023-01-07T08:47:15.661Z,19.60
2023-01-07T08:49:42.989Z,17.95
2023-01-07T08:52:10.277Z,16.92
2023-01-07T08:54:37.720Z,16.88
2023-01-07T08:57:05.041Z,18.75
2023-01-07T08:59:32.415Z,16.55
2023-01-07T09:01:59.894Z,19.48
2023-01-07T09:04:29.995Z,17.20
2023-01-07T09:06:57.420Z,17.80
2023-01-07T09:09:24.829Z,17.77
2023-01-07T09:11:52.287Z,16.42
2023-01-07T09:14:19.602Z,16.10
2023-01-07T09:16:47.016Z,16.70
2023-01-07T09:26:36.083Z,17.60
2023-01-07T09:29:03.493Z,15.60
2023-01-07T09:31:31.032Z,14.75
2023-01-07T09:33:58.362Z,14.68
2023-01-07T11:26:14.111Z,12.02
2023-01-07T11:28:48.883Z,12.75
2023-01-07T11:31:16.431Z,12.13
2023-01-07T11:34:02.207Z,11.85
2023-01-07T11:36:42.723Z,12.02
2023-01-07T11:39:17.881Z,11.87
2023-01-07T11:41:54.620Z,13.30
2023-01-07T11:44:22.848Z,13.55
2023-01-07T11:46:50.602Z,14.30
2023-01-07T11:49:27.726Z,14.93
2023-01-07T11:51:55.948Z,15.45
2023-01-07T11:54:29.099Z,15.43
2023-01-07T11:57:24.236Z,15.55
2023-01-07T12:00:17.487Z,17.42
2023-01-07T12:02:45.010Z,16.90
2023-01-07T12:05:23.081Z,17.63
2023-01-07T12:07:51.923Z,18.95
2023-01-07T12:10:37.810Z,19.48
2023-01-07T12:13:17.184Z,19.83
2023-01-07T12:16:03.492Z,19.17
2023-01-07T12:18:58.449Z,20.17
2023-01-07T12:21:32.843Z,20.27
2023-01-07T12:24:40.153Z,20.70
2023-01-07T12:27:48.918Z,20.30
2023-01-07T12:30:29.918Z,21.25
2023-01-07T12:33:27.474Z,20.58
2023-01-07T12:36:00.990Z,18.52
2023-01-07T12:38:39.271Z,19.00
2023-01-07T12:41:26.456Z,18.05
2023-01-07T12:44:06.288Z,18.05
2023-01-07T12:46:44.614Z,17.58
2023-01-07T12:49:27.801Z,17.58
2023-01-07T12:52:02.565Z,18.57
2023-01-07T12:54:45.083Z,18.42
2023-01-07T12:57:27.321Z,17.08
2023-01-07T13:00:18.902Z,17.25
2023-01-07T13:03:10.803Z,17.15
2023-01-07T16:37:19.465Z,9.48
2023-01-07T16:39:51.346Z,11.37
2023-01-07T19:17:26.366Z,9.80
2023-01-07T19:19:53.983Z,15.95
2023-01-07T19:22:22.060Z,13.85
2023-01-07T19:24:49.282Z,13.85
2023-01-07T19:27:16.823Z,14.27
2023-01-07T19:29:44.250Z,13.82
2023-01-07T19:32:11.601Z,13.80
2023-01-07T19:34:39.367Z,14.45
2023-01-07T19:37:07.045Z,15.30
2023-01-07T19:39:34.717Z,16.93
2023-01-07T19:42:02.577Z,14.93
2023-01-07T19:44:30.250Z,15.70
2023-01-07T19:46:57.441Z,15.25
2023-01-07T19:49:25.137Z,14.63
2023-01-07T19:51:52.976Z,13.93
2023-01-07T19:54:20.632Z,15.20
2023-01-07T19:56:48.253Z,13.60
2023-01-07T19:59:15.899Z,13.40
2023-01-07T20:01:45.218Z,13.23
2023-01-07T20:04:14.704Z,12.50
2023-01-07T20:06:42.560Z,13.07
2023-01-07T20:09:13.246Z,12.93
2023-01-07T20:11:42.982Z,13.43
2023-01-07T20:14:11.978Z,39.00
2023-01-07T20:16:41.526Z,71.07
2023-01-07T20:19:12.411Z,69.55
2023-01-07T20:21:40.271Z,71.47
2023-01-07T20:24:08.221Z,70.47
2023-01-07T20:26:38.225Z,66.18
2023-01-07T20:29:05.959Z,66.37
2023-01-07T20:31:33.671Z,62.85
2023-01-07T20:34:01.735Z,61.13
2023-01-07T20:36:30.266Z,59.17
2023-01-07T20:39:03.241Z,57.30
2023-01-07T20:41:30.893Z,55.88
2023-01-07T20:44:00.045Z,50.70
2023-01-07T20:46:29.290Z,49.35
2023-01-07T20:48:57.598Z,47.60
2023-01-07T20:51:25.400Z,43.85
2023-01-07T20:53:53.343Z,41.95
2023-01-07T20:56:22.160Z,42.65
2023-01-07T20:58:50.333Z,42.00
2023-01-07T21:01:19.986Z,39.97
2023-01-07T21:03:47.809Z,38.67
2023-01-07T21:06:17.572Z,37.22
2023-01-07T21:08:46.569Z,37.33
2023-01-07T21:11:15.662Z,35.67
2023-01-07T21:13:43.378Z,34.28
2023-01-07T21:16:11.094Z,31.80
2023-01-07T21:18:38.733Z,31.20
2023-01-07T21:21:17.092Z,31.08
2023-01-07T21:23:46.888Z,29.40
2023-01-07T21:26:15.075Z,29.30
2023-01-07T21:28:44.317Z,26.85
2023-01-07T21:31:13.888Z,26.17
2023-01-07T21:33:41.840Z,26.23
2023-01-07T21:36:16.588Z,26.20
2023-01-07T21:38:44.634Z,24.67
2023-01-07T21:41:14.013Z,24.15
2023-01-07T21:43:41.949Z,23.70
2023-01-07T21:46:10.546Z,25.20
2023-01-07T21:48:39.289Z,22.92
2023-01-07T21:51:10.745Z,22.05
2023-01-07T21:53:38.609Z,21.98
2023-01-07T21:56:07.346Z,20.77
2023-01-07T21:58:36.078Z,20.45
2023-01-07T22:01:04.605Z,20.10
2023-01-07T22:03:32.544Z,18.02
2023-01-07T22:06:01.424Z,18.15
2023-01-07T22:08:29.227Z,17.63
2023-01-07T22:10:56.840Z,15.98
2023-01-07T22:13:24.481Z,16.10
2023-01-07T22:15:52.193Z,15.45
2023-01-07T22:18:19.859Z,16.02
2023-01-07T22:20:52.865Z,15.03
2023-01-07T22:23:20.567Z,15.15
2023-01-07T22:25:48.175Z,14.80
2023-01-07T22:28:17.551Z,15.07
2023-01-07T22:30:48.109Z,13.93
2023-01-07T22:33:15.762Z,13.88
2023-01-07T22:35:43.987Z,13.88
2023-01-07T22:38:12.265Z,12.45
2023-01-07T22:40:40.284Z,12.00
2023-01-07T22:43:10.161Z,10.10
2023-01-07T22:45:52.901Z,12.07
2023-01-07T22:48:24.341Z,21.05
2023-01-07T22:50:58.324Z,15.85
2023-01-07T22:53:25.822Z,15.93
2023-01-07T22:55:53.306Z,16.08
2023-01-07T22:58:20.709Z,14.75
2023-01-07T23:00:50.807Z,14.98
2023-01-07T23:03:19.492Z,15.73
2023-01-07T23:05:46.899Z,15.10
2023-01-07T23:08:14.407Z,15.05
2023-01-07T23:10:44.642Z,16.40
2023-01-07T23:13:12.231Z,15.37
2023-01-07T23:15:40.033Z,14.80
2023-01-07T23:18:09.969Z,14.93
2023-01-07T23:20:42.074Z,15.15
2023-01-07T23:23:11.214Z,16.27
2023-01-07T23:25:48.081Z,16.70
2023-01-07T23:28:16.762Z,16.05
2023-01-07T23:30:44.885Z,16.42
2023-01-07T23:33:12.207Z,16.53
2023-01-07T23:35:39.688Z,15.50
2023-01-07T23:38:07.007Z,16.60
2023-01-07T23:40:34.411Z,16.17
2023-01-07T23:43:02.592Z,15.57
2023-01-07T23:45:30.041Z,15.85
2023-01-07T23:47:57.459Z,16.17
2023-01-07T23:50:25.292Z,15.98
2023-01-07T23:52:52.955Z,15.63
2023-01-07T23:55:20.550Z,15.32
2023-01-07T23:57:48.200Z,15.57
